| time (UTC) | temp C | wind direction | speed KPH | gust KPH | rain 1hr cm | rain 24hr cm | rain mn cm | humidity % | barometer mb |
| 20260503194546 | 21 | 264 | 1.6 | 14.5 | 0.00 | 0.00 | 0.00 | 59 | 1014.3 |
| 20260503193050 | 21 | 249 | 4.8 | 14.5 | 0.00 | 0.00 | 0.00 | 62 | 1014.3 |
| 20260503191543 | 22 | 278 | 6.4 | 16.1 | 0.00 | 0.00 | 0.00 | 62 | 1014.3 |
| 20260503190039 | 22 | 262 | 6.4 | 11.3 | 0.00 | 0.00 | 0.00 | 60 | 1014.4 |
| 20260503184550 | 22 | 284 | 3.2 | 8.0 | 0.00 | 0.00 | 0.00 | 57 | 1014.4 |
| 20260503183047 | 22 | 342 | 1.6 | 8.0 | 0.00 | 0.00 | 0.00 | 56 | 1014.7 |
| 20260503181532 | 22 | 233 | 0.0 | 8.0 | 0.00 | 0.00 | 0.00 | 58 | 1014.8 |
| 20260503180034 | 22 | 103 | 1.6 | 4.8 | 0.00 | 0.00 | 0.00 | 57 | 1014.9 |
| 20260503174527 | 21 | 282 | 1.6 | 6.4 | 0.00 | 0.00 | 0.00 | 57 | 1015.1 |
| 20260503173032 | 21 | 144 | 0.0 | 4.8 | 0.00 | 0.00 | 0.00 | 58 | 1015.3 |
| 20260503171525 | 20 | 269 | 1.6 | 6.4 | 0.00 | 0.00 | 0.00 | 60 | 1015.4 |
| 20260503150107 | 14 | 277 | 0.0 | 3.2 | 0.00 | 0.00 | 0.00 | 87 | 1016.1 |
| 20260503081518 | 10 | 252 | 0.0 | 1.6 | 0.00 | 0.00 | 0.00 | 92 | 1015.4 |
| 20260503071513 | 11 | 117 | 0.0 | 0.0 | 0.00 | 0.00 | 0.00 | 89 | 1015.3 |
| 20260503054504 | 12 | 117 | 0.0 | 0.0 | 0.00 | 0.00 | 0.00 | 85 | 1014.8 |
| 20260503053004 | 12 | 117 | 0.0 | 1.6 | 0.00 | 0.00 | 0.00 | 85 | 1014.8 |
| 20260503051504 | 13 | 118 | 0.0 | 1.6 | 0.00 | 0.00 | 0.00 | 83 | 1014.8 |
| 20260503050004 | 13 | 198 | 0.0 | 3.2 | 0.00 | 0.00 | 0.00 | 81 | 1014.8 |
| 20260503044503 | 14 | 198 | 0.0 | 0.0 | 0.00 | 0.00 | 0.00 | 80 | 1014.9 |
| 20260503043002 | 15 | 198 | 0.0 | 0.0 | 0.00 | 0.00 | 0.00 | 79 | 1014.7 |
| 20260503041502 | 15 | 198 | 0.0 | 0.0 | 0.00 | 0.00 | 0.00 | 79 | 1014.7 |
| 20260503040001 | 16 | 198 | 0.0 | 1.6 | 0.00 | 0.00 | 0.00 | 75 | 1014.5 |
| 20260503034618 | 17 | 198 | 0.0 | 1.6 | 0.00 | 0.00 | 0.00 | 73 | 1014.4 |
| 20260503033102 | 18 | 198 | 0.0 | 1.6 | 0.00 | 0.00 | 0.00 | 71 | 1014.3 |
| 20260503031600 | 20 | 198 | 1.6 | 1.6 | 0.00 | 0.00 | 0.00 | 67 | 1014.2 |
| 20260503030059 | 22 | 206 | 0.0 | 1.6 | 0.00 | 0.00 | 0.00 | 61 | 1014.0 |
| 20260503024605 | 22 | 212 | 0.0 | 1.6 | 0.00 | 0.00 | 0.00 | 54 | 1013.9 |
| 20260503023100 | 23 | 267 | 0.0 | 3.2 | 0.00 | 0.00 | 0.00 | 54 | 1014.0 |
| 20260503021556 | 23 | 214 | 0.0 | 4.8 | 0.00 | 0.00 | 0.00 | 52 | 1014.1 |
| 20260503020055 | 23 | 259 | 0.0 | 3.2 | 0.00 | 0.00 | 0.00 | 54 | 1014.2 |
| 20260503014610 | 23 | 202 | 0.0 | 4.8 | 0.00 | 0.00 | 0.00 | 53 | 1014.3 |
| 20260503013055 | 24 | 278 | 1.6 | 3.2 | 0.00 | 0.00 | 0.00 | 52 | 1014.4 |
| 20260503011551 | 23 | 271 | 1.6 | 6.4 | 0.00 | 0.00 | 0.00 | 53 | 1014.4 |
| 20260503010049 | 23 | 281 | 4.8 | 12.9 | 0.00 | 0.00 | 0.00 | 51 | 1014.5 |
| 20260503004548 | 23 | 246 | 3.2 | 12.9 | 0.00 | 0.00 | 0.00 | 52 | 1014.5 |
| 20260503003047 | 23 | 278 | 6.4 | 12.9 | 0.00 | 0.00 | 0.00 | 53 | 1014.6 |
| 20260503001545 | 23 | 287 | 4.8 | 11.3 | 0.00 | 0.00 | 0.00 | 56 | 1014.7 |
| 20260503000044 | 23 | 252 | 3.2 | 8.0 | 0.00 | 0.00 | 0.00 | 59 | 1014.7 |
| 20260502234543 | 23 | 294 | 1.6 | 11.3 | 0.00 | 0.00 | 0.00 | 58 | 1014.9 |
| 20260502233044 | 23 | 274 | 6.4 | 14.5 | 0.00 | 0.00 | 0.00 | 55 | 1015.1 |
| 20260502231539 | 23 | 259 | 4.8 | 9.7 | 0.00 | 0.00 | 0.00 | 55 | 1015.2 |
| 20260502230036 | 22 | 294 | 1.6 | 16.1 | 0.00 | 0.00 | 0.00 | 58 | 1015.4 |
| 20260502224533 | 22 | 248 | 3.2 | 16.1 | 0.00 | 0.00 | 0.00 | 56 | 1015.6 |
| 20260502223033 | 22 | 239 | 6.4 | 14.5 | 0.00 | 0.00 | 0.00 | 59 | 1016.0 |
| 20260502221528 | 22 | 233 | 6.4 | 12.9 | 0.00 | 0.00 | 0.00 | 59 | 1016.1 |
| 20260502220026 | 22 | 240 | 6.4 | 14.5 | 0.00 | 0.00 | 0.00 | 60 | 1016.2 |
| 20260502214529 | 21 | 286 | 6.4 | 14.5 | 0.00 | 0.00 | 0.00 | 62 | 1016.4 |
| 20260502213023 | 21 | 269 | 4.8 | 12.9 | 0.00 | 0.00 | 0.00 | 63 | 1016.6 |
| 20260502211530 | 21 | 276 | 3.2 | 16.1 | 0.00 | 0.00 | 0.00 | 64 | 1016.7 |
| 20260502210022 | 21 | 288 | 1.6 | 14.5 | 0.00 | 0.00 | 0.00 | 64 | 1016.9 |
| 20260502204522 | 20 | 236 | 8.0 | 16.1 | 0.00 | 0.00 | 0.00 | 64 | 1017.0 |
| 20260502203021 | 20 | 268 | 8.0 | 16.1 | 0.00 | 0.00 | 0.00 | 63 | 1017.1 |
| 20260502201520 | 20 | 255 | 6.4 | 17.7 | 0.00 | 0.00 | 0.00 | 65 | 1017.3 |
| 20260502200020 | 21 | 198 | 6.4 | 16.1 | 0.00 | 0.00 | 0.00 | 65 | 1017.4 |